createdAt,value
2022-12-28T00:02:16.708Z,100.00
2022-12-28T00:04:43.866Z,100.00
2022-12-28T00:07:10.751Z,100.00
2022-12-28T00:09:37.566Z,100.00
2022-12-28T00:12:04.675Z,100.00
2022-12-28T00:14:31.518Z,100.00
2022-12-28T00:16:58.421Z,100.00
2022-12-28T00:19:25.466Z,100.00
2022-12-28T00:21:53.661Z,100.00
2022-12-28T00:24:21.682Z,100.00
2022-12-28T00:26:48.819Z,100.00
2022-12-28T00:29:16.814Z,100.00
2022-12-28T00:31:45.637Z,100.00
2022-12-28T00:34:12.680Z,100.00
2022-12-28T00:37:09.998Z,100.00
2022-12-28T00:39:29.345Z,100.00
2022-12-28T00:41:56.152Z,100.00
2022-12-28T00:44:23.071Z,100.00
2022-12-28T00:46:50.109Z,100.00
2022-12-28T00:49:18.238Z,100.00
2022-12-28T00:51:45.057Z,100.00
2022-12-28T00:54:11.951Z,100.00
2022-12-28T00:56:40.055Z,100.00
2022-12-28T00:59:08.041Z,100.00
2022-12-28T01:01:35.259Z,100.00
2022-12-28T01:04:02.148Z,100.00
2022-12-28T01:06:29.052Z,100.00
2022-12-28T01:08:57.632Z,100.00
2022-12-28T01:11:28.737Z,100.00
2022-12-28T01:13:58.076Z,100.00
2022-12-28T01:16:26.820Z,100.00
2022-12-28T01:18:55.887Z,100.00
2022-12-28T01:21:23.994Z,100.00
2022-12-28T01:23:53.328Z,100.00
2022-12-28T01:26:20.218Z,100.00
2022-12-28T01:28:47.050Z,100.00
2022-12-28T01:31:15.066Z,100.00
2022-12-28T01:33:42.323Z,100.00
2022-12-28T01:36:11.901Z,100.00
2022-12-28T01:38:38.744Z,100.00
2022-12-28T01:41:09.877Z,100.00
2022-12-28T01:43:42.055Z,100.00
2022-12-28T01:46:32.014Z,100.00
2022-12-28T01:48:58.794Z,100.00
2022-12-28T01:51:27.360Z,100.00
2022-12-28T01:53:55.928Z,100.00
2022-12-28T01:56:23.143Z,100.00
2022-12-28T01:58:51.664Z,100.00
2022-12-28T02:01:18.928Z,100.00
2022-12-28T02:03:46.053Z,100.00
2022-12-28T02:06:13.135Z,100.00
2022-12-28T02:08:43.085Z,100.00
2022-12-28T02:11:12.501Z,100.00
2022-12-28T02:13:39.838Z,100.00
2022-12-28T02:16:06.836Z,100.00
2022-12-28T02:18:34.087Z,100.00
2022-12-28T02:21:09.972Z,100.00
2022-12-28T02:23:42.754Z,100.00
2022-12-28T02:26:09.562Z,100.00
2022-12-28T02:28:54.018Z,100.00
2022-12-28T02:31:35.663Z,100.00
2022-12-28T02:34:09.567Z,100.00
2022-12-28T02:36:39.294Z,100.00
2022-12-28T02:39:09.198Z,100.00
2022-12-28T02:41:38.266Z,100.00
2022-12-28T02:44:05.191Z,100.00
2022-12-28T02:46:52.011Z,100.00
2022-12-28T02:49:44.802Z,100.00
2022-12-28T02:52:11.583Z,100.00
2022-12-28T02:55:00.151Z,100.00
2022-12-28T02:57:27.234Z,100.00
2022-12-28T03:00:06.871Z,100.00
2022-12-28T03:02:54.206Z,100.00
2022-12-28T03:05:49.030Z,100.00
2022-12-28T03:08:20.921Z,100.00
2022-12-28T03:11:02.446Z,100.00
2022-12-28T03:13:44.812Z,100.00
2022-12-28T03:16:22.402Z,100.00
2022-12-28T03:19:20.686Z,100.00
2022-12-28T03:22:07.978Z,100.00
2022-12-28T03:24:55.688Z,100.00
2022-12-28T03:27:46.161Z,100.00
2022-12-28T03:30:36.950Z,100.00
2022-12-28T03:33:05.877Z,100.00
2022-12-28T03:35:45.585Z,100.00
2022-12-28T03:38:27.022Z,100.00
2022-12-28T03:41:07.385Z,100.00
2022-12-28T03:43:52.472Z,100.00
2022-12-28T03:46:22.508Z,100.00
2022-12-28T03:48:50.433Z,100.00
2022-12-28T03:51:20.779Z,100.00
2022-12-28T03:53:48.088Z,100.00
2022-12-28T03:56:19.515Z,100.00
2022-12-28T03:58:47.265Z,100.00
2022-12-28T04:01:16.105Z,100.00
2022-12-28T04:03:43.809Z,100.00
2022-12-28T04:06:16.458Z,100.00
2022-12-28T04:08:44.542Z,100.00
2022-12-28T04:11:12.093Z,100.00
2022-12-28T04:13:39.218Z,100.00
2022-12-28T04:16:09.773Z,100.00
2022-12-28T04:18:38.027Z,100.00
2022-12-28T04:21:05.040Z,100.00
2022-12-28T04:23:32.131Z,100.00
2022-12-28T04:26:14.220Z,100.00
2022-12-28T04:28:42.991Z,100.00
2022-12-28T04:31:36.033Z,100.00
2022-12-28T04:34:07.143Z,100.00
2022-12-28T04:36:39.507Z,100.00
2022-12-28T04:39:10.808Z,100.00
2022-12-28T04:41:37.700Z,100.00
2022-12-28T04:44:04.533Z,100.00
2022-12-28T04:46:31.403Z,100.00
2022-12-28T04:48:58.297Z,100.00
2022-12-28T04:51:26.950Z,100.00
2022-12-28T04:53:54.943Z,100.00
2022-12-28T04:56:23.091Z,100.00
2022-12-28T04:58:53.347Z,100.00
2022-12-28T05:01:20.472Z,100.00
2022-12-28T05:03:54.449Z,100.00
2022-12-28T05:06:24.060Z,100.00
2022-12-28T05:08:50.999Z,100.00
2022-12-28T05:11:19.224Z,100.00
2022-12-28T05:13:46.042Z,100.00
2022-12-28T05:16:14.508Z,100.00
2022-12-28T05:18:41.394Z,100.00
2022-12-28T05:21:09.493Z,100.00
2022-12-28T05:23:37.321Z,100.00
2022-12-28T05:26:05.131Z,100.00
2022-12-28T05:28:32.348Z,100.00
2022-12-28T05:31:03.348Z,100.00
2022-12-28T05:33:30.800Z,100.00
2022-12-28T05:36:02.281Z,100.00
2022-12-28T05:38:29.088Z,100.00
2022-12-28T05:40:56.005Z,100.00
2022-12-28T05:43:22.807Z,100.00
2022-12-28T05:45:49.619Z,100.00
2022-12-28T05:48:16.450Z,100.00
2022-12-28T05:50:43.287Z,100.00
2022-12-28T05:53:10.097Z,100.00
2022-12-28T05:55:36.921Z,100.00
2022-12-28T05:58:03.790Z,100.00
2022-12-28T06:00:30.600Z,100.00
2022-12-28T06:02:57.509Z,100.00
2022-12-28T06:05:24.427Z,100.00
2022-12-28T06:07:54.544Z,100.00
2022-12-28T06:10:21.372Z,100.00
2022-12-28T06:12:48.238Z,100.00
2022-12-28T06:15:15.135Z,100.00
2022-12-28T06:17:41.958Z,100.00
2022-12-28T06:20:09.181Z,100.00
2022-12-28T06:22:36.128Z,100.00
2022-12-28T06:25:02.983Z,100.00
2022-12-28T06:27:29.807Z,100.00
2022-12-28T06:29:56.611Z,100.00
2022-12-28T06:32:23.433Z,100.00
2022-12-28T06:34:50.359Z,100.00
2022-12-28T06:37:17.197Z,100.00
2022-12-28T06:39:44.014Z,100.00
2022-12-28T06:42:10.897Z,100.00
2022-12-28T06:44:44.169Z,100.00
2022-12-28T06:47:11.835Z,100.00
2022-12-28T06:49:38.679Z,100.00
2022-12-28T06:52:05.526Z,100.00
2022-12-28T06:54:32.358Z,100.00
2022-12-28T06:56:59.275Z,100.00
2022-12-28T06:59:26.069Z,100.00
2022-12-28T07:01:53.136Z,100.00
2022-12-28T07:04:21.406Z,100.00
2022-12-28T07:06:48.562Z,100.00
2022-12-28T07:09:16.237Z,100.00
2022-12-28T07:11:44.205Z,100.00
2022-12-28T07:14:11.101Z,100.00
2022-12-28T07:19:04.027Z,100.00
2022-12-28T07:21:35.294Z,100.00
2022-12-28T07:24:02.299Z,100.00
2022-12-28T07:26:30.324Z,100.00
2022-12-28T07:28:57.953Z,100.00
2022-12-28T07:31:34.631Z,100.00
2022-12-28T07:34:03.957Z,100.00
2022-12-28T07:36:31.724Z,100.00
2022-12-28T07:38:58.867Z,100.00
2022-12-28T07:41:27.938Z,100.00
2022-12-28T07:43:55.223Z,100.00
2022-12-28T07:46:23.519Z,100.00
2022-12-28T07:48:51.424Z,100.00
2022-12-28T07:51:20.151Z,100.00
2022-12-28T07:53:48.376Z,100.00
2022-12-28T07:56:15.579Z,100.00
2022-12-28T08:01:09.790Z,100.00
2022-12-28T08:03:37.209Z,100.00
2022-12-28T08:06:11.739Z,100.00
2022-12-28T08:08:39.990Z,100.00
2022-12-28T08:11:08.080Z,100.00
2022-12-28T08:13:36.413Z,100.00
2022-12-28T08:16:03.873Z,100.00
2022-12-28T08:18:31.268Z,100.00
2022-12-28T08:21:02.388Z,100.00
2022-12-28T08:23:30.245Z,100.00
2022-12-28T08:25:57.378Z,100.00
2022-12-28T08:28:24.409Z,100.00
2022-12-28T08:30:51.265Z,100.00
2022-12-28T08:33:18.139Z,100.00
2022-12-28T08:35:44.946Z,100.00
2022-12-28T08:38:11.773Z,100.00
2022-12-28T08:40:38.596Z,100.00
2022-12-28T08:43:05.507Z,100.00
2022-12-28T08:45:32.391Z,100.00
2022-12-28T08:47:59.325Z,100.00
2022-12-28T08:50:31.356Z,100.00
2022-12-28T08:52:58.652Z,100.00
2022-12-28T08:55:25.471Z,100.00
2022-12-28T08:57:52.287Z,100.00
2022-12-28T09:00:19.211Z,100.00
2022-12-28T09:02:46.074Z,100.00
2022-12-28T09:05:12.931Z,100.00
2022-12-28T09:07:39.783Z,100.00
2022-12-28T09:10:07.065Z,100.00
2022-12-28T09:12:33.913Z,100.00
2022-12-28T09:15:00.758Z,100.00
2022-12-28T09:17:27.587Z,100.00
2022-12-28T09:19:54.396Z,100.00
2022-12-28T09:22:21.217Z,100.00
2022-12-28T09:24:48.013Z,100.00
2022-12-28T09:27:14.856Z,100.00
2022-12-28T09:29:41.808Z,100.00
2022-12-28T09:32:08.616Z,100.00
2022-12-28T09:34:37.594Z,100.00
2022-12-28T09:37:05.645Z,100.00
2022-12-28T09:39:32.524Z,100.00
2022-12-28T09:41:59.398Z,100.00
2022-12-28T09:44:41.537Z,100.00
2022-12-28T09:47:09.434Z,100.00
2022-12-28T09:49:41.298Z,100.00
2022-12-28T09:52:24.863Z,100.00
2022-12-28T09:54:51.709Z,100.00
2022-12-28T09:57:19.310Z,100.00
2022-12-28T09:59:47.664Z,100.00
2022-12-28T10:02:33.668Z,100.00
2022-12-28T10:05:01.250Z,100.00
2022-12-28T10:07:28.090Z,100.00
2022-12-28T10:09:54.952Z,100.00
2022-12-28T10:12:24.257Z,100.00
2022-12-28T10:14:51.846Z,100.00
2022-12-28T10:17:20.830Z,100.00
2022-12-28T10:19:47.822Z,100.00
2022-12-28T10:22:18.795Z,100.00
2022-12-28T10:24:45.929Z,100.00
2022-12-28T10:27:23.727Z,100.00
2022-12-28T10:29:51.785Z,100.00
2022-12-28T10:32:19.276Z,100.00
2022-12-28T10:34:59.784Z,100.00
2022-12-28T10:37:29.372Z,100.00
2022-12-28T10:40:09.018Z,100.00
2022-12-28T10:42:35.850Z,100.00
2022-12-28T10:45:04.309Z,100.00
2022-12-28T10:47:35.741Z,100.00
2022-12-28T10:50:35.324Z,100.00
2022-12-28T10:52:58.160Z,100.00
2022-12-28T10:55:33.974Z,100.00
2022-12-28T10:58:30.258Z,100.00
2022-12-28T11:01:00.163Z,100.00
2022-12-28T11:03:29.243Z,100.00
2022-12-28T11:06:08.260Z,100.00
2022-12-28T11:08:36.418Z,100.00
2022-12-28T11:11:03.254Z,100.00
2022-12-28T11:13:30.362Z,100.00
2022-12-28T11:15:57.362Z,100.00
2022-12-28T11:18:24.377Z,100.00
2022-12-28T11:20:52.303Z,100.00
2022-12-28T11:23:31.355Z,100.00
2022-12-28T11:25:58.765Z,100.00
2022-12-28T11:28:25.675Z,100.00
2022-12-28T11:30:52.851Z,100.00
2022-12-28T11:33:25.971Z,99.73
2022-12-28T11:35:58.943Z,99.55
2022-12-28T11:38:43.081Z,100.00
2022-12-28T11:41:11.485Z,100.00
2022-12-28T11:43:42.356Z,100.00
2022-12-28T11:46:21.136Z,98.90
2022-12-28T11:48:57.734Z,99.94
2022-12-28T11:51:29.172Z,97.94
2022-12-28T11:54:00.055Z,97.32
2022-12-28T11:56:47.237Z,97.60
2022-12-28T11:59:20.589Z,100.00
2022-12-28T12:01:48.236Z,99.97
2022-12-28T12:04:32.124Z,98.11
2022-12-28T12:07:01.480Z,97.93
2022-12-28T12:09:43.025Z,97.42
2022-12-28T12:12:17.966Z,98.39
2022-12-28T12:14:48.206Z,98.83
2022-12-28T12:17:27.005Z,98.51
2022-12-28T12:20:05.516Z,99.61
2022-12-28T12:22:40.793Z,100.00
2022-12-28T12:25:11.879Z,100.00
2022-12-28T12:27:40.187Z,100.00
2022-12-28T12:30:17.473Z,100.00
2022-12-28T12:32:46.287Z,100.00
2022-12-28T12:35:29.348Z,99.94
2022-12-28T12:38:08.458Z,99.59
2022-12-28T12:40:50.688Z,100.00
2022-12-28T12:43:25.503Z,100.00
2022-12-28T12:46:01.364Z,100.00
2022-12-28T12:48:34.098Z,100.00
2022-12-28T12:51:05.076Z,100.00
2022-12-28T12:53:48.487Z,100.00
2022-12-28T12:56:34.820Z,100.00
2022-12-28T12:59:15.526Z,100.00
2022-12-28T13:01:45.371Z,100.00
2022-12-28T13:04:20.145Z,100.00
2022-12-28T13:06:47.371Z,100.00
2022-12-28T13:09:18.115Z,100.00
2022-12-28T13:11:45.764Z,100.00
2022-12-28T13:14:18.975Z,100.00
2022-12-28T13:16:51.900Z,100.00
2022-12-28T13:19:23.254Z,100.00
2022-12-28T13:21:50.785Z,100.00
2022-12-28T13:24:28.615Z,100.00
2022-12-28T13:26:56.832Z,100.00
2022-12-28T13:29:27.065Z,100.00
2022-12-28T13:31:53.993Z,100.00
2022-12-28T13:34:33.606Z,100.00
2022-12-28T13:37:12.896Z,100.00
2022-12-28T13:39:42.023Z,100.00
2022-12-28T13:42:14.792Z,100.00
2022-12-28T13:44:47.969Z,100.00
2022-12-28T13:47:50.390Z,100.00
2022-12-28T13:50:27.958Z,100.00
2022-12-28T13:52:58.164Z,100.00
2022-12-28T13:55:29.015Z,100.00
2022-12-28T13:57:59.996Z,100.00
2022-12-28T14:00:28.294Z,100.00
2022-12-28T14:02:56.011Z,100.00
2022-12-28T14:05:24.921Z,100.00
2022-12-28T14:07:53.422Z,100.00
2022-12-28T14:10:20.581Z,100.00
2022-12-28T14:12:47.994Z,100.00
2022-12-28T14:15:15.961Z,100.00
2022-12-28T14:17:43.374Z,100.00
2022-12-28T14:20:10.368Z,100.00
2022-12-28T14:22:38.459Z,100.00
2022-12-28T14:25:05.431Z,100.00
2022-12-28T14:27:36.404Z,100.00
2022-12-28T14:30:04.724Z,100.00
2022-12-28T14:32:31.553Z,100.00
2022-12-28T14:34:59.706Z,100.00
2022-12-28T14:37:29.848Z,100.00
2022-12-28T14:40:01.021Z,100.00
2022-12-28T14:42:27.954Z,100.00
2022-12-28T14:44:56.786Z,100.00
2022-12-28T14:47:32.840Z,100.00
2022-12-28T14:50:01.590Z,100.00
2022-12-28T14:52:33.674Z,100.00
2022-12-28T14:55:05.122Z,100.00
2022-12-28T14:57:31.976Z,100.00
2022-12-28T15:00:01.735Z,100.00
2022-12-28T15:02:34.729Z,100.00
2022-12-28T15:05:02.203Z,100.00
2022-12-28T15:07:31.039Z,100.00
2022-12-28T15:09:57.876Z,100.00
2022-12-28T15:12:24.836Z,100.00
2022-12-28T15:14:51.699Z,100.00
2022-12-28T15:17:18.621Z,100.00
2022-12-28T15:19:45.459Z,100.00
2022-12-28T15:22:12.618Z,100.00
2022-12-28T15:24:41.437Z,100.00
2022-12-28T15:27:08.357Z,100.00
2022-12-28T15:32:22.033Z,100.00
2022-12-28T15:34:48.903Z,100.00
2022-12-28T15:37:15.811Z,100.00
2022-12-28T15:39:42.653Z,100.00
2022-12-28T15:42:09.559Z,100.00
2022-12-28T15:44:36.374Z,100.00
2022-12-28T15:47:03.318Z,100.00
2022-12-28T15:49:30.170Z,100.00
2022-12-28T15:51:57.073Z,100.00
2022-12-28T15:54:23.875Z,100.00
2022-12-28T15:56:54.172Z,100.00
2022-12-28T15:59:21.302Z,100.00
2022-12-28T16:01:48.703Z,100.00
2022-12-28T16:04:15.742Z,100.00
2022-12-28T16:06:44.961Z,100.00
2022-12-28T16:09:12.860Z,100.00
2022-12-28T16:11:40.457Z,100.00
2022-12-28T16:14:08.812Z,100.00
2022-12-28T16:16:37.187Z,100.00
2022-12-28T16:19:04.654Z,100.00
2022-12-28T16:21:31.478Z,99.85
2022-12-28T16:23:59.109Z,99.99
2022-12-28T16:26:25.994Z,98.83
2022-12-28T16:28:52.877Z,99.60
2022-12-28T16:31:23.621Z,98.74
2022-12-28T16:33:59.120Z,99.03
2022-12-28T16:36:26.626Z,99.40
2022-12-28T16:38:53.882Z,99.25
2022-12-28T16:41:21.537Z,99.08
2022-12-28T16:43:48.879Z,98.54
2022-12-28T16:46:16.155Z,98.99
2022-12-28T16:48:43.426Z,99.15
2022-12-28T16:51:11.604Z,99.23
2022-12-28T16:53:38.544Z,99.92
2022-12-28T16:56:06.173Z,99.79
2022-12-28T16:58:33.686Z,99.05
2022-12-28T17:01:04.760Z,98.53
2022-12-28T17:03:31.694Z,98.87
2022-12-28T17:05:58.881Z,98.09
2022-12-28T17:08:26.146Z,97.97
2022-12-28T17:10:53.144Z,98.59
2022-12-28T17:13:19.935Z,97.89
2022-12-28T17:15:46.924Z,98.25
2022-12-28T17:18:13.815Z,98.20
2022-12-28T17:20:40.856Z,97.97
2022-12-28T17:23:08.017Z,98.75
2022-12-28T17:25:35.401Z,98.00
2022-12-28T17:28:02.514Z,97.98
2022-12-28T17:30:29.820Z,97.54
2022-12-28T17:32:56.918Z,98.49
2022-12-28T17:35:23.845Z,97.69
2022-12-28T17:37:52.543Z,99.12
2022-12-28T17:40:19.841Z,98.24
2022-12-28T17:42:46.747Z,97.13
2022-12-28T17:45:13.661Z,98.34
2022-12-28T17:47:40.546Z,98.10
2022-12-28T17:50:07.981Z,97.20
2022-12-28T17:52:34.869Z,97.56
2022-12-28T17:55:02.963Z,97.84
2022-12-28T17:57:32.857Z,97.43
2022-12-28T18:00:04.117Z,98.16
2022-12-28T18:02:39.556Z,97.89
2022-12-28T18:05:06.930Z,97.72
2022-12-28T18:07:34.032Z,97.76
2022-12-28T18:10:00.977Z,96.69
2022-12-28T18:12:27.830Z,98.83
2022-12-28T18:14:54.730Z,98.01
2022-12-28T18:17:23.234Z,98.61
2022-12-28T18:19:53.303Z,97.90
2022-12-28T18:22:22.867Z,97.49
2022-12-28T18:24:50.469Z,97.77
2022-12-28T18:27:17.473Z,97.02
2022-12-28T18:29:44.663Z,97.62
2022-12-28T18:32:11.481Z,97.45
2022-12-28T18:34:38.368Z,96.73
2022-12-28T18:37:05.280Z,96.89
2022-12-28T18:39:32.137Z,96.56
2022-12-28T18:41:58.973Z,97.72
2022-12-28T18:44:25.870Z,98.04
2022-12-28T18:46:52.937Z,98.77
2022-12-28T18:49:19.877Z,100.00
2022-12-28T18:51:46.698Z,100.00
2022-12-28T18:54:13.568Z,100.00
2022-12-28T18:56:40.408Z,100.00
2022-12-28T18:59:07.228Z,100.00
2022-12-28T19:02:07.902Z,100.00
2022-12-28T19:04:23.803Z,100.00
2022-12-28T19:06:50.730Z,100.00
2022-12-28T19:09:17.595Z,100.00
2022-12-28T19:11:45.101Z,100.00
2022-12-28T19:14:12.758Z,100.00
2022-12-28T19:16:39.935Z,100.00
2022-12-28T19:19:06.873Z,100.00
2022-12-28T19:21:35.080Z,100.00
2022-12-28T19:24:06.849Z,100.00
2022-12-28T19:26:34.573Z,100.00
2022-12-28T19:29:02.766Z,100.00
2022-12-28T19:31:30.212Z,100.00
2022-12-28T19:33:57.686Z,100.00
2022-12-28T19:36:24.959Z,100.00
2022-12-28T19:38:57.672Z,100.00
2022-12-28T19:41:24.714Z,100.00
2022-12-28T19:43:51.680Z,100.00
2022-12-28T19:46:22.965Z,100.00
2022-12-28T19:48:52.568Z,100.00
2022-12-28T19:51:19.402Z,100.00
2022-12-28T19:53:46.239Z,100.00
2022-12-28T19:56:14.314Z,100.00
2022-12-28T19:58:43.455Z,100.00
2022-12-28T20:01:11.815Z,100.00
2022-12-28T20:03:39.055Z,100.00
2022-12-28T20:06:13.590Z,100.00
2022-12-28T20:08:40.801Z,100.00
2022-12-28T20:11:07.630Z,100.00
2022-12-28T20:13:34.801Z,100.00
2022-12-28T20:16:01.829Z,100.00
2022-12-28T20:18:28.969Z,100.00
2022-12-28T20:23:48.123Z,100.00
2022-12-28T20:26:15.309Z,100.00
2022-12-28T20:28:42.157Z,100.00
2022-12-28T20:31:11.155Z,100.00
2022-12-28T20:33:38.123Z,100.00
2022-12-28T20:36:10.434Z,100.00
2022-12-28T20:38:37.424Z,100.00
2022-12-28T20:41:32.014Z,100.00
2022-12-28T20:43:59.560Z,100.00
2022-12-28T20:46:26.999Z,100.00
2022-12-28T20:48:54.231Z,100.00
2022-12-28T20:51:21.123Z,100.00
2022-12-28T20:53:48.063Z,100.00
2022-12-28T20:56:14.869Z,100.00
2022-12-28T20:58:41.908Z,100.00
2022-12-28T21:01:10.376Z,100.00
2022-12-28T21:03:37.806Z,100.00
2022-12-28T21:06:05.001Z,100.00
2022-12-28T21:08:32.246Z,100.00
2022-12-28T21:10:59.380Z,100.00
2022-12-28T21:13:26.588Z,100.00
2022-12-28T21:15:53.568Z,100.00
2022-12-28T21:18:20.510Z,100.00
2022-12-28T21:20:48.150Z,100.00
2022-12-28T21:23:15.300Z,100.00
2022-12-28T21:25:42.130Z,100.00
2022-12-28T21:28:10.047Z,100.00
2022-12-28T21:30:37.091Z,100.00
2022-12-28T21:33:04.081Z,100.00
2022-12-28T21:35:34.443Z,100.00
2022-12-28T21:38:01.958Z,100.00
2022-12-28T21:40:28.925Z,100.00
2022-12-28T21:42:55.783Z,100.00
2022-12-28T21:45:22.748Z,100.00
2022-12-28T21:47:49.584Z,100.00
2022-12-28T21:50:16.422Z,100.00
2022-12-28T21:52:43.235Z,100.00
2022-12-28T21:55:28.592Z,100.00
2022-12-28T21:57:55.467Z,100.00
2022-12-28T22:00:40.940Z,100.00
2022-12-28T22:03:26.415Z,100.00
2022-12-28T22:06:03.799Z,100.00
2022-12-28T22:08:49.747Z,100.00
2022-12-28T22:11:35.902Z,100.00
2022-12-28T22:14:03.430Z,100.00
2022-12-28T22:16:34.112Z,100.00
2022-12-28T22:19:03.117Z,100.00
2022-12-28T22:21:31.048Z,100.00
2022-12-28T22:23:57.985Z,100.00
2022-12-28T22:26:24.926Z,100.00
2022-12-28T22:28:51.828Z,100.00
2022-12-28T22:31:18.697Z,100.00
2022-12-28T22:33:46.051Z,100.00
2022-12-28T22:36:14.475Z,100.00
2022-12-28T22:38:41.342Z,100.00
2022-12-28T22:41:08.278Z,100.00
2022-12-28T22:43:35.384Z,100.00
2022-12-28T22:46:06.940Z,100.00
2022-12-28T22:48:34.187Z,100.00
2022-12-28T22:51:02.166Z,100.00
2022-12-28T22:53:29.126Z,100.00
2022-12-28T22:55:59.594Z,100.00
2022-12-28T22:58:27.103Z,100.00
2022-12-28T23:01:07.883Z,100.00
2022-12-28T23:03:37.025Z,100.00
2022-12-28T23:06:04.653Z,100.00
2022-12-28T23:08:31.607Z,100.00
2022-12-28T23:10:59.670Z,100.00
2022-12-28T23:13:26.854Z,100.00
2022-12-28T23:15:56.697Z,100.00
2022-12-28T23:18:42.528Z,100.00
2022-12-28T23:21:38.120Z,100.00
2022-12-28T23:24:24.696Z,100.00
2022-12-28T23:27:10.331Z,100.00
2022-12-28T23:29:37.165Z,100.00
2022-12-28T23:32:04.344Z,100.00
2022-12-28T23:34:31.270Z,100.00
2022-12-28T23:36:58.096Z,100.00
2022-12-28T23:39:25.058Z,100.00
2022-12-28T23:41:52.194Z,100.00
2022-12-28T23:44:23.744Z,100.00
2022-12-28T23:46:55.250Z,100.00
2022-12-28T23:49:25.392Z,100.00
2022-12-28T23:51:52.229Z,100.00
2022-12-28T23:54:19.917Z,100.00
2022-12-28T23:56:47.330Z,100.00
2022-12-28T23:59:14.497Z,100.00
